sensor_id;sensor_type;location;lat;lon;timestamp;P1;durP1;ratioP1;P2;durP2;ratioP2
63581;SDS011;49727;51.078;17.066;2023-06-24T00:05:12;24.23;;;16.60;;
63581;SDS011;49727;51.078;17.066;2023-06-24T00:20:12;20.58;;;17.35;;
63581;SDS011;49727;51.078;17.066;2023-06-24T00:35:14;22.60;;;17.03;;
63581;SDS011;49727;51.078;17.066;2023-06-24T00:50:15;18.00;;;14.10;;
63581;SDS011;49727;51.078;17.066;2023-06-24T01:05:16;19.48;;;13.80;;
63581;SDS011;49727;51.078;17.066;2023-06-24T01:20:24;16.15;;;11.73;;
63581;SDS011;49727;51.078;17.066;2023-06-24T01:35:31;13.87;;;9.60;;
63581;SDS011;49727;51.078;17.066;2023-06-24T01:50:34;6.77;;;5.67;;
63581;SDS011;49727;51.078;17.066;2023-06-24T02:05:37;9.23;;;5.87;;
63581;SDS011;49727;51.078;17.066;2023-06-24T02:20:40;8.00;;;5.70;;
63581;SDS011;49727;51.078;17.066;2023-06-24T02:35:43;10.40;;;6.20;;
63581;SDS011;49727;51.078;17.066;2023-06-24T02:50:46;11.97;;;6.57;;
63581;SDS011;49727;51.078;17.066;2023-06-24T03:20:50;10.93;;;5.67;;
63581;SDS011;49727;51.078;17.066;2023-06-24T03:35:50;9.75;;;5.28;;
63581;SDS011;49727;51.078;17.066;2023-06-24T03:50:51;8.17;;;5.90;;
63581;SDS011;49727;51.078;17.066;2023-06-24T04:05:55;7.75;;;5.40;;
63581;SDS011;49727;51.078;17.066;2023-06-24T04:20:56;5.97;;;4.13;;
63581;SDS011;49727;51.078;17.066;2023-06-24T04:35:57;5.27;;;3.50;;
63581;SDS011;49727;51.078;17.066;2023-06-24T04:50:58;7.50;;;4.37;;
63581;SDS011;49727;51.078;17.066;2023-06-24T05:05:59;7.00;;;3.33;;
63581;SDS011;49727;51.078;17.066;2023-06-24T05:20:59;6.45;;;3.67;;
63581;SDS011;49727;51.078;17.066;2023-06-24T05:35:59;5.28;;;3.30;;
63581;SDS011;49727;51.078;17.066;2023-06-24T05:50:59;4.68;;;3.00;;
63581;SDS011;49727;51.078;17.066;2023-06-24T06:06:00;6.22;;;3.50;;
63581;SDS011;49727;51.078;17.066;2023-06-24T06:21:00;4.80;;;3.42;;
63581;SDS011;49727;51.078;17.066;2023-06-24T06:36:01;6.88;;;3.97;;
63581;SDS011;49727;51.078;17.066;2023-06-24T06:51:01;6.88;;;4.38;;
63581;SDS011;49727;51.078;17.066;2023-06-24T07:06:01;7.40;;;4.82;;
63581;SDS011;49727;51.078;17.066;2023-06-24T07:21:02;7.45;;;5.22;;
63581;SDS011;49727;51.078;17.066;2023-06-24T07:36:02;8.85;;;5.50;;
63581;SDS011;49727;51.078;17.066;2023-06-24T07:51:03;8.47;;;5.40;;
63581;SDS011;49727;51.078;17.066;2023-06-24T08:06:03;9.00;;;5.90;;
63581;SDS011;49727;51.078;17.066;2023-06-24T08:21:04;8.45;;;6.50;;
63581;SDS011;49727;51.078;17.066;2023-06-24T08:36:04;8.60;;;6.80;;
63581;SDS011;49727;51.078;17.066;2023-06-24T08:51:05;9.50;;;6.83;;
63581;SDS011;49727;51.078;17.066;2023-06-24T09:06:08;9.60;;;7.33;;
63581;SDS011;49727;51.078;17.066;2023-06-24T09:21:10;9.67;;;6.90;;
63581;SDS011;49727;51.078;17.066;2023-06-24T09:36:14;13.50;;;8.93;;
63581;SDS011;49727;51.078;17.066;2023-06-24T09:51:14;12.40;;;7.60;;
63581;SDS011;49727;51.078;17.066;2023-06-24T10:06:16;10.30;;;7.97;;
63581;SDS011;49727;51.078;17.066;2023-06-24T10:21:16;11.43;;;8.50;;
63581;SDS011;49727;51.078;17.066;2023-06-24T10:36:50;9.33;;;7.80;;
63581;SDS011;49727;51.078;17.066;2023-06-24T10:51:52;10.00;;;6.37;;
63581;SDS011;49727;51.078;17.066;2023-06-24T11:06:59;9.10;;;5.75;;
63581;SDS011;49727;51.078;17.066;2023-06-24T11:22:01;7.33;;;5.50;;
63581;SDS011;49727;51.078;17.066;2023-06-24T11:37:14;6.28;;;5.20;;
63581;SDS011;49727;51.078;17.066;2023-06-24T11:52:15;6.97;;;4.67;;
63581;SDS011;49727;51.078;17.066;2023-06-24T12:07:16;5.78;;;4.10;;
63581;SDS011;49727;51.078;17.066;2023-06-24T12:22:16;6.82;;;4.75;;
63581;SDS011;49727;51.078;17.066;2023-06-24T12:37:16;6.78;;;4.63;;
63581;SDS011;49727;51.078;17.066;2023-06-24T12:52:17;8.25;;;5.05;;
63581;SDS011;49727;51.078;17.066;2023-06-24T13:07:17;6.90;;;4.30;;
63581;SDS011;49727;51.078;17.066;2023-06-24T13:22:17;5.95;;;4.60;;
63581;SDS011;49727;51.078;17.066;2023-06-24T13:37:18;5.25;;;3.97;;
63581;SDS011;49727;51.078;17.066;2023-06-24T13:52:18;8.77;;;5.32;;
63581;SDS011;49727;51.078;17.066;2023-06-24T14:07:19;5.93;;;3.97;;
63581;SDS011;49727;51.078;17.066;2023-06-24T14:22:19;5.93;;;3.63;;
63581;SDS011;49727;51.078;17.066;2023-06-24T14:37:20;5.57;;;3.73;;
63581;SDS011;49727;51.078;17.066;2023-06-24T14:52:21;7.22;;;3.90;;
63581;SDS011;49727;51.078;17.066;2023-06-24T15:07:21;6.80;;;3.75;;
63581;SDS011;49727;51.078;17.066;2023-06-24T15:22:21;5.70;;;3.97;;
63581;SDS011;49727;51.078;17.066;2023-06-24T15:37:23;6.67;;;4.20;;
63581;SDS011;49727;51.078;17.066;2023-06-24T15:52:23;5.53;;;4.03;;
63581;SDS011;49727;51.078;17.066;2023-06-24T16:07:24;5.50;;;4.47;;
63581;SDS011;49727;51.078;17.066;2023-06-24T16:22:24;6.05;;;4.40;;
63581;SDS011;49727;51.078;17.066;2023-06-24T16:37:24;6.63;;;4.00;;
63581;SDS011;49727;51.078;17.066;2023-06-24T16:52:25;6.70;;;4.20;;
63581;SDS011;49727;51.078;17.066;2023-06-24T17:07:25;7.95;;;4.80;;
63581;SDS011;49727;51.078;17.066;2023-06-24T17:22:25;8.40;;;4.97;;
63581;SDS011;49727;51.078;17.066;2023-06-24T17:37:26;6.88;;;5.10;;
63581;SDS011;49727;51.078;17.066;2023-06-24T17:52:26;10.23;;;5.43;;
63581;SDS011;49727;51.078;17.066;2023-06-24T18:07:26;8.98;;;6.55;;
63581;SDS011;49727;51.078;17.066;2023-06-24T18:22:26;12.10;;;6.63;;
63581;SDS011;49727;51.078;17.066;2023-06-24T18:37:27;9.00;;;6.22;;
63581;SDS011;49727;51.078;17.066;2023-06-24T18:52:30;8.10;;;6.70;;
63581;SDS011;49727;51.078;17.066;2023-06-24T19:07:30;13.30;;;7.72;;
63581;SDS011;49727;51.078;17.066;2023-06-24T19:22:31;9.90;;;6.47;;
63581;SDS011;49727;51.078;17.066;2023-06-24T19:37:31;10.50;;;6.87;;
63581;SDS011;49727;51.078;17.066;2023-06-24T19:52:31;11.83;;;7.93;;
63581;SDS011;49727;51.078;17.066;2023-06-24T20:07:32;8.57;;;6.50;;
63581;SDS011;49727;51.078;17.066;2023-06-24T20:22:32;11.43;;;7.07;;
63581;SDS011;49727;51.078;17.066;2023-06-24T20:37:32;10.57;;;6.83;;
63581;SDS011;49727;51.078;17.066;2023-06-24T20:52:33;8.17;;;6.57;;
63581;SDS011;49727;51.078;17.066;2023-06-24T21:07:35;8.90;;;6.40;;
63581;SDS011;49727;51.078;17.066;2023-06-24T21:22:35;8.30;;;6.53;;
63581;SDS011;49727;51.078;17.066;2023-06-24T21:37:36;13.02;;;7.78;;
63581;SDS011;49727;51.078;17.066;2023-06-24T21:52:36;9.95;;;6.65;;
63581;SDS011;49727;51.078;17.066;2023-06-24T22:07:37;10.60;;;7.05;;
63581;SDS011;49727;51.078;17.066;2023-06-24T22:22:41;9.95;;;7.80;;
63581;SDS011;49727;51.078;17.066;2023-06-24T22:37:43;14.63;;;9.23;;
63581;SDS011;49727;51.078;17.066;2023-06-24T22:52:43;9.88;;;7.50;;
63581;SDS011;49727;51.078;17.066;2023-06-24T23:07:44;9.65;;;7.18;;
63581;SDS011;49727;51.078;17.066;2023-06-24T23:22:44;10.00;;;7.35;;
63581;SDS011;49727;51.078;17.066;2023-06-24T23:37:45;11.50;;;7.00;;
63581;SDS011;49727;51.078;17.066;2023-06-24T23:52:46;11.50;;;8.13;;
